createdAt,value
2023-02-22T00:01:50.573Z,9.52
2023-02-22T00:04:21.208Z,9.80
2023-02-22T00:06:49.691Z,8.13
2023-02-22T00:09:20.519Z,8.38
2023-02-22T00:11:48.797Z,8.00
2023-02-22T00:14:15.562Z,8.18
2023-02-22T00:16:42.186Z,8.30
2023-02-22T00:19:08.725Z,9.00
2023-02-22T00:21:35.243Z,8.05
2023-02-22T00:24:17.079Z,7.78
2023-02-22T00:26:43.602Z,7.95
2023-02-22T00:29:10.121Z,7.63
2023-02-22T00:31:39.652Z,7.57
2023-02-22T00:34:06.224Z,7.85
2023-02-22T00:36:32.714Z,7.55
2023-02-22T00:38:59.503Z,8.05
2023-02-22T00:41:26.099Z,7.33
2023-02-22T00:43:52.629Z,6.60
2023-02-22T00:46:19.092Z,7.43
2023-02-22T00:48:45.547Z,7.57
2023-02-22T00:51:12.064Z,7.25
2023-02-22T00:53:38.579Z,6.93
2023-02-22T00:56:05.509Z,7.68
2023-02-22T00:58:32.021Z,7.05
2023-02-22T01:00:58.601Z,7.38
2023-02-22T01:03:25.128Z,7.20
2023-02-22T01:05:51.634Z,7.37
2023-02-22T01:08:18.328Z,6.72
2023-02-22T01:10:45.263Z,6.38
2023-02-22T01:13:13.175Z,6.47
2023-02-22T01:15:42.237Z,6.90
2023-02-22T01:18:09.641Z,7.30
2023-02-22T01:20:36.874Z,6.72
2023-02-22T01:23:06.832Z,7.63
2023-02-22T01:25:34.855Z,7.20
2023-02-22T01:28:02.774Z,7.40
2023-02-22T01:30:35.538Z,7.63
2023-02-22T01:33:03.911Z,6.95
2023-02-22T01:35:33.016Z,5.97
2023-02-22T01:37:59.620Z,6.28
2023-02-22T01:40:30.239Z,6.40
2023-02-22T01:43:02.890Z,7.10
2023-02-22T01:45:35.410Z,6.90
2023-02-22T01:48:11.557Z,6.68
2023-02-22T01:51:00.733Z,7.40
2023-02-22T01:53:35.787Z,6.75
2023-02-22T01:56:04.156Z,6.47
2023-02-22T01:58:33.786Z,6.55
2023-02-22T02:01:01.227Z,6.75
2023-02-22T02:03:35.420Z,6.85
2023-02-22T02:06:05.253Z,7.43
2023-02-22T02:09:00.731Z,7.30
2023-02-22T02:11:28.216Z,6.65
2023-02-22T02:13:57.795Z,6.57
2023-02-22T02:17:01.483Z,7.60
2023-02-22T02:20:08.201Z,7.32
2023-02-22T02:22:38.445Z,7.83
2023-02-22T02:25:34.221Z,7.43
2023-02-22T02:28:27.865Z,7.85
2023-02-22T02:31:09.964Z,7.68
2023-02-22T02:34:01.692Z,8.10
2023-02-22T02:36:47.430Z,7.13
2023-02-22T02:39:27.649Z,8.38
2023-02-22T02:41:54.292Z,7.88
2023-02-22T02:44:51.213Z,8.05
2023-02-22T02:47:24.837Z,7.57
2023-02-22T02:49:58.103Z,8.77
2023-02-22T02:52:26.120Z,8.82
2023-02-22T02:54:54.886Z,9.20
2023-02-22T02:57:21.944Z,8.45
2023-02-22T02:59:48.546Z,7.60
2023-02-22T03:02:46.041Z,8.60
2023-02-22T03:05:31.923Z,8.40
2023-02-22T03:08:07.815Z,8.77
2023-02-22T03:10:50.391Z,8.35
2023-02-22T03:14:18.532Z,9.13
2023-02-22T03:17:12.856Z,8.83
2023-02-22T03:19:58.527Z,8.70
2023-02-22T03:22:34.601Z,8.23
2023-02-22T03:25:28.993Z,8.60
2023-02-22T03:28:02.979Z,9.55
2023-02-22T03:30:41.559Z,8.77
2023-02-22T03:33:43.493Z,8.95
2023-02-22T03:36:18.709Z,9.32
2023-02-22T03:38:46.968Z,9.75
2023-02-22T03:41:18.842Z,9.70
2023-02-22T03:43:50.757Z,8.67
2023-02-22T03:46:19.405Z,9.77
2023-02-22T03:48:51.017Z,8.90
2023-02-22T03:51:18.714Z,9.20
2023-02-22T03:53:45.564Z,9.43
2023-02-22T03:56:20.143Z,9.77
2023-02-22T03:58:48.067Z,8.50
2023-02-22T04:01:15.710Z,8.68
2023-02-22T04:03:42.851Z,9.98
2023-02-22T04:06:09.946Z,9.20
2023-02-22T04:08:36.468Z,9.60
2023-02-22T04:11:02.989Z,9.68
2023-02-22T04:13:29.631Z,8.95
2023-02-22T04:15:56.101Z,10.18
2023-02-22T04:18:22.607Z,9.98
2023-02-22T04:20:49.142Z,10.00
2023-02-22T04:23:17.041Z,10.55
2023-02-22T04:25:43.734Z,9.18
2023-02-22T04:28:10.317Z,9.85
2023-02-22T04:30:36.945Z,10.02
2023-02-22T04:33:03.567Z,9.47
2023-02-22T04:35:30.067Z,10.50
2023-02-22T04:37:56.571Z,8.90
2023-02-22T04:40:23.079Z,9.40
2023-02-22T04:42:49.858Z,9.90
2023-02-22T04:45:16.424Z,10.70
2023-02-22T04:47:42.962Z,10.27
2023-02-22T04:50:11.367Z,10.40
2023-02-22T04:52:37.858Z,8.40
2023-02-22T04:55:05.260Z,9.70
2023-02-22T04:57:31.914Z,8.63
2023-02-22T04:59:58.585Z,8.93
2023-02-22T05:02:25.307Z,9.77
2023-02-22T05:04:51.972Z,9.52
2023-02-22T05:07:18.432Z,8.55
2023-02-22T05:09:44.972Z,9.77
2023-02-22T05:12:11.510Z,9.65
2023-02-22T05:14:38.491Z,9.45
2023-02-22T05:17:05.107Z,8.93
2023-02-22T05:19:31.624Z,9.32
2023-02-22T05:21:58.180Z,10.43
2023-02-22T05:24:24.844Z,9.60
2023-02-22T05:26:51.594Z,9.70
2023-02-22T05:29:18.319Z,9.07
2023-02-22T05:31:44.854Z,8.98
2023-02-22T05:34:11.546Z,9.80
2023-02-22T05:36:38.110Z,11.15
2023-02-22T05:39:05.472Z,10.25
2023-02-22T05:41:31.980Z,10.55
2023-02-22T05:43:58.498Z,10.60
2023-02-22T05:46:25.254Z,11.37
2023-02-22T05:48:51.813Z,11.25
2023-02-22T05:51:19.674Z,10.18
2023-02-22T05:53:46.407Z,10.52
2023-02-22T05:56:13.123Z,10.50
2023-02-22T05:58:39.602Z,10.17
2023-02-22T06:01:06.170Z,11.27
2023-02-22T06:03:32.690Z,10.65
2023-02-22T06:05:59.200Z,11.68
2023-02-22T06:08:25.735Z,10.55
2023-02-22T06:10:52.216Z,11.73
2023-02-22T06:13:18.689Z,10.57
2023-02-22T06:15:45.110Z,10.43
2023-02-22T06:18:11.846Z,11.27
2023-02-22T06:20:38.321Z,11.73
2023-02-22T06:23:04.820Z,12.23
2023-02-22T06:25:31.942Z,12.20
2023-02-22T06:28:00.175Z,11.18
2023-02-22T06:30:29.875Z,11.98
2023-02-22T06:32:58.061Z,11.38
2023-02-22T06:35:25.325Z,11.33
2023-02-22T06:37:55.338Z,11.43
2023-02-22T06:40:21.897Z,12.10
2023-02-22T06:42:49.483Z,10.63
2023-02-22T06:45:18.207Z,10.35
2023-02-22T06:47:45.631Z,11.53
2023-02-22T06:50:30.260Z,11.85
2023-02-22T06:52:58.427Z,10.90
2023-02-22T06:55:29.933Z,11.80
2023-02-22T06:57:56.661Z,11.05
2023-02-22T07:00:25.764Z,9.90
2023-02-22T07:02:53.016Z,11.13
2023-02-22T07:05:22.506Z,10.73
2023-02-22T07:07:50.804Z,10.35
2023-02-22T07:10:27.027Z,10.25
2023-02-22T07:12:56.174Z,11.27
2023-02-22T07:15:25.003Z,11.75
2023-02-22T07:17:52.527Z,12.57
2023-02-22T07:20:20.852Z,11.63
2023-02-22T07:22:48.259Z,12.55
2023-02-22T07:25:14.809Z,13.13
2023-02-22T07:27:42.192Z,12.60
2023-02-22T07:30:17.055Z,11.90
2023-02-22T07:32:44.179Z,11.63
2023-02-22T07:35:19.004Z,11.68
2023-02-22T07:37:45.626Z,11.77
2023-02-22T07:40:12.568Z,11.68
2023-02-22T07:42:55.437Z,12.63
2023-02-22T07:45:23.428Z,12.32
2023-02-22T07:47:50.023Z,12.00
2023-02-22T07:50:18.261Z,11.73
2023-02-22T07:52:48.843Z,11.57
2023-02-22T07:55:18.018Z,11.90
2023-02-22T07:57:49.407Z,11.15
2023-02-22T08:00:23.410Z,10.85
2023-02-22T08:02:49.974Z,11.23
2023-02-22T08:05:16.571Z,11.60
2023-02-22T08:07:43.377Z,10.82
2023-02-22T08:10:10.990Z,11.52
2023-02-22T08:12:38.335Z,12.20
2023-02-22T08:15:08.186Z,11.13
2023-02-22T08:17:34.912Z,11.20
2023-02-22T08:20:01.729Z,11.70
2023-02-22T08:22:29.181Z,12.00
2023-02-22T08:24:55.831Z,10.65
2023-02-22T08:27:26.880Z,10.90
2023-02-22T08:29:53.543Z,9.68
2023-02-22T08:32:20.926Z,10.48
2023-02-22T08:34:47.767Z,9.23
2023-02-22T08:37:15.980Z,9.20
2023-02-22T08:39:43.513Z,9.70
2023-02-22T08:42:10.379Z,9.40
2023-02-22T08:44:38.730Z,10.05
2023-02-22T08:47:06.632Z,9.70
2023-02-22T08:49:33.384Z,9.57
2023-02-22T08:51:59.957Z,9.00
2023-02-22T08:54:26.447Z,9.93
2023-02-22T08:56:52.938Z,9.07
2023-02-22T08:59:19.467Z,10.13
2023-02-22T09:01:46.055Z,9.48
2023-02-22T09:04:12.844Z,9.43
2023-02-22T09:06:44.130Z,8.88
2023-02-22T09:09:10.660Z,9.07
2023-02-22T09:11:37.303Z,9.73
2023-02-22T09:14:03.829Z,9.32
2023-02-22T09:16:31.074Z,9.27
2023-02-22T09:18:57.773Z,10.13
2023-02-22T09:21:24.338Z,9.63
2023-02-22T09:23:50.804Z,8.60
2023-02-22T09:26:17.383Z,9.35
2023-02-22T09:28:43.856Z,8.33
2023-02-22T09:31:10.409Z,9.13
2023-02-22T09:33:36.954Z,10.25
2023-02-22T09:36:03.738Z,9.98
2023-02-22T09:38:30.336Z,10.73
2023-02-22T09:41:16.504Z,9.27
2023-02-22T09:44:01.042Z,9.43
2023-02-22T09:46:38.836Z,10.32
2023-02-22T09:49:19.420Z,9.02
2023-02-22T09:52:24.369Z,8.70
2023-02-22T09:54:57.997Z,9.00
2023-02-22T09:57:32.627Z,9.88
2023-02-22T10:00:15.066Z,9.63
2023-02-22T10:02:57.549Z,9.07
2023-02-22T10:05:29.346Z,10.02
2023-02-22T10:08:05.955Z,10.10
2023-02-22T10:10:37.230Z,8.77
2023-02-22T10:13:29.205Z,9.85
2023-02-22T10:16:02.519Z,9.77
2023-02-22T10:18:57.373Z,10.40
2023-02-22T10:21:52.214Z,9.40
2023-02-22T10:24:46.964Z,10.30
2023-02-22T10:27:19.982Z,9.25
2023-02-22T10:29:57.214Z,9.95
2023-02-22T10:32:32.308Z,9.10
2023-02-22T10:35:05.501Z,9.87
2023-02-22T10:37:34.477Z,9.70
2023-02-22T10:40:32.035Z,10.70
2023-02-22T10:43:08.270Z,9.18
2023-02-22T10:45:37.198Z,8.70
2023-02-22T10:48:18.553Z,8.53
2023-02-22T10:50:46.871Z,7.95
2023-02-22T10:53:17.169Z,9.75
2023-02-22T10:56:18.456Z,8.85
2023-02-22T10:59:01.471Z,8.55
2023-02-22T11:01:30.788Z,9.30
2023-02-22T11:03:58.709Z,9.00
2023-02-22T11:06:25.425Z,8.75
2023-02-22T11:09:03.584Z,9.18
2023-02-22T11:11:30.045Z,9.65
2023-02-22T11:13:57.675Z,8.70
2023-02-22T11:16:39.085Z,9.68
2023-02-22T11:19:17.648Z,8.38
2023-02-22T11:21:44.734Z,8.82
2023-02-22T11:24:14.309Z,9.55
2023-02-22T11:26:49.205Z,10.00
2023-02-22T11:29:21.853Z,9.55
2023-02-22T11:31:52.048Z,9.90
2023-02-22T11:34:28.375Z,9.30
2023-02-22T11:36:54.955Z,9.48
2023-02-22T11:39:24.101Z,10.30
2023-02-22T11:41:51.163Z,9.35
2023-02-22T11:44:32.685Z,9.40
2023-02-22T11:47:06.946Z,9.63
2023-02-22T11:49:38.187Z,9.63
2023-02-22T11:52:28.375Z,9.93
2023-02-22T11:55:09.934Z,9.32
2023-02-22T11:57:39.530Z,8.57
2023-02-22T12:00:24.838Z,8.73
2023-02-22T12:03:23.389Z,9.32
2023-02-22T12:06:02.015Z,9.57
2023-02-22T12:09:00.224Z,9.88
2023-02-22T12:11:43.189Z,9.63
2023-02-22T12:14:09.645Z,9.18
2023-02-22T12:16:45.326Z,9.73
2023-02-22T12:19:26.917Z,8.83
2023-02-22T12:22:09.346Z,10.05
2023-02-22T12:25:08.555Z,9.77
2023-02-22T12:27:49.214Z,8.77
2023-02-22T12:30:23.966Z,9.40
2023-02-22T12:32:59.028Z,9.37
2023-02-22T12:35:28.907Z,9.40
2023-02-22T12:38:09.433Z,10.32
2023-02-22T12:41:18.324Z,9.73
2023-02-22T12:44:06.494Z,9.50
2023-02-22T12:46:36.375Z,10.17
2023-02-22T12:49:24.243Z,9.35
2023-02-22T12:52:21.924Z,9.38
2023-02-22T12:55:29.368Z,9.77
2023-02-22T12:58:09.732Z,9.13
2023-02-22T13:00:56.893Z,9.37
2023-02-22T13:03:35.716Z,9.55
2023-02-22T13:06:20.487Z,8.70
2023-02-22T13:08:53.086Z,8.95
2023-02-22T13:11:25.598Z,9.90
2023-02-22T13:14:01.738Z,8.63
2023-02-22T13:16:52.645Z,9.30
2023-02-22T13:19:49.011Z,9.00
2023-02-22T13:22:26.784Z,9.02
2023-02-22T13:25:14.896Z,8.70
2023-02-22T13:27:44.482Z,10.13
2023-02-22T13:30:20.070Z,9.52
2023-02-22T13:33:09.380Z,10.55
2023-02-22T13:36:08.105Z,10.07
2023-02-22T13:39:10.383Z,9.80
2023-02-22T13:42:08.028Z,8.83
2023-02-22T13:44:46.567Z,9.57
2023-02-22T13:47:36.357Z,9.82
2023-02-22T13:50:30.034Z,8.77
2023-02-22T13:52:58.054Z,9.90
2023-02-22T13:55:29.883Z,9.20
2023-02-22T13:58:04.047Z,9.30
2023-02-22T14:00:47.759Z,9.02
2023-02-22T14:03:14.130Z,9.70
2023-02-22T14:05:44.800Z,11.77
2023-02-22T14:08:14.398Z,10.83
2023-02-22T14:10:43.757Z,10.13
2023-02-22T14:13:11.046Z,9.40
2023-02-22T14:16:00.723Z,9.40
2023-02-22T14:18:46.656Z,9.18
2023-02-22T14:21:21.702Z,8.97
2023-02-22T14:23:53.031Z,9.00
2023-02-22T14:26:27.785Z,9.77
2023-02-22T14:29:03.405Z,9.25
2023-02-22T14:31:37.023Z,9.40
2023-02-22T14:34:04.209Z,9.20
2023-02-22T14:36:38.770Z,8.80
2023-02-22T14:39:23.530Z,9.98
2023-02-22T14:42:02.640Z,9.35
2023-02-22T14:45:11.987Z,8.30
2023-02-22T14:48:11.617Z,7.97
2023-02-22T14:50:41.025Z,9.73
2023-02-22T14:53:13.266Z,8.57
2023-02-22T14:56:02.709Z,8.52
2023-02-22T14:58:47.517Z,8.30
2023-02-22T15:01:40.563Z,8.83
2023-02-22T15:04:25.575Z,7.97
2023-02-22T15:06:53.701Z,8.23
2023-02-22T15:09:25.741Z,8.10
2023-02-22T15:12:18.390Z,8.38
2023-02-22T15:14:47.696Z,7.93
2023-02-22T15:17:19.906Z,7.82
2023-02-22T15:19:48.817Z,7.25
2023-02-22T15:22:22.613Z,8.30
2023-02-22T15:25:02.092Z,8.27
2023-02-22T15:27:29.022Z,7.83
2023-02-22T15:30:04.480Z,9.00
2023-02-22T15:32:36.200Z,7.97
2023-02-22T15:35:25.517Z,8.07
2023-02-22T15:38:11.777Z,7.57
2023-02-22T15:40:43.291Z,7.37
2023-02-22T15:43:32.076Z,7.85
2023-02-22T15:45:59.914Z,7.70
2023-02-22T15:48:28.024Z,7.65
2023-02-22T15:51:14.095Z,8.23
2023-02-22T15:53:44.054Z,7.50
2023-02-22T15:56:16.878Z,9.35
2023-02-22T15:58:46.859Z,8.05
2023-02-22T16:01:17.080Z,9.65
2023-02-22T16:03:56.074Z,8.88
2023-02-22T16:06:38.598Z,8.93
2023-02-22T16:09:11.364Z,8.77
2023-02-22T16:11:44.258Z,8.75
2023-02-22T16:14:40.358Z,8.40
2023-02-22T16:17:30.696Z,8.38
2023-02-22T16:20:02.191Z,9.03
2023-02-22T16:22:34.686Z,9.40
2023-02-22T16:25:18.532Z,9.15
2023-02-22T16:27:57.885Z,9.82
2023-02-22T16:30:26.164Z,9.07
2023-02-22T16:32:55.532Z,9.70
2023-02-22T16:35:28.719Z,11.02
2023-02-22T16:38:03.890Z,9.80
2023-02-22T16:40:34.591Z,10.02
2023-02-22T16:43:07.912Z,10.20
2023-02-22T16:45:36.171Z,10.47
2023-02-22T16:48:14.620Z,9.85
2023-02-22T16:50:41.634Z,9.70
2023-02-22T16:53:08.317Z,9.95
2023-02-22T16:55:36.608Z,10.55
2023-02-22T16:58:04.715Z,10.87
2023-02-22T17:00:31.672Z,11.27
2023-02-22T17:03:04.325Z,11.10
2023-02-22T17:05:32.342Z,11.02
2023-02-22T17:07:58.872Z,10.98
2023-02-22T17:10:26.178Z,11.50
2023-02-22T17:12:56.233Z,11.57
2023-02-22T17:15:28.258Z,10.50
2023-02-22T17:17:56.686Z,12.18
2023-02-22T17:20:30.229Z,11.95
2023-02-22T17:23:02.527Z,12.37
2023-02-22T17:25:33.193Z,13.60
2023-02-22T17:27:59.726Z,12.18
2023-02-22T17:30:26.872Z,14.02
2023-02-22T17:32:56.068Z,13.55
2023-02-22T17:35:23.847Z,14.23
2023-02-22T17:37:50.380Z,14.07
2023-02-22T17:40:17.361Z,14.30
2023-02-22T17:42:45.715Z,15.25
2023-02-22T17:45:14.106Z,15.25
2023-02-22T17:47:44.115Z,15.87
2023-02-22T17:50:11.498Z,15.38
2023-02-22T17:52:38.639Z,17.25
2023-02-22T17:55:06.494Z,18.00
2023-02-22T17:57:33.229Z,17.55
2023-02-22T18:00:00.760Z,16.53
2023-02-22T18:02:27.517Z,17.00
2023-02-22T18:04:54.051Z,17.17
2023-02-22T18:07:20.573Z,18.35
2023-02-22T18:09:47.399Z,18.58
2023-02-22T18:12:13.874Z,19.00
2023-02-22T18:14:40.372Z,18.15
2023-02-22T18:17:06.845Z,18.35
2023-02-22T18:19:34.556Z,18.70
2023-02-22T18:22:03.057Z,18.50
2023-02-22T18:24:36.523Z,19.00
2023-02-22T18:27:06.044Z,18.40
2023-02-22T18:29:32.774Z,19.15
2023-02-22T18:31:59.523Z,19.30
2023-02-22T18:34:26.148Z,20.17
2023-02-22T18:36:52.723Z,19.17
2023-02-22T18:39:19.265Z,21.17
2023-02-22T18:41:48.630Z,20.73
2023-02-22T18:44:16.115Z,20.73
2023-02-22T18:46:46.176Z,22.23
2023-02-22T18:49:13.840Z,21.43
2023-02-22T18:51:43.567Z,22.25
2023-02-22T18:54:12.479Z,21.38
2023-02-22T18:56:40.276Z,21.27
2023-02-22T18:59:11.970Z,21.85
2023-02-22T19:01:40.312Z,22.23
2023-02-22T19:04:12.705Z,21.85
2023-02-22T19:06:39.908Z,23.33
2023-02-22T19:09:09.438Z,22.77
2023-02-22T19:11:37.078Z,22.88
2023-02-22T19:14:05.107Z,22.77
2023-02-22T19:16:32.945Z,22.92
2023-02-22T19:18:59.644Z,23.10
2023-02-22T19:21:28.872Z,22.77
2023-02-22T19:23:56.282Z,24.25
2023-02-22T19:26:25.684Z,23.63
2023-02-22T19:28:54.722Z,23.90
2023-02-22T19:31:23.030Z,24.30
2023-02-22T19:33:53.048Z,24.67
2023-02-22T19:36:20.706Z,24.27
2023-02-22T19:38:47.497Z,25.13
2023-02-22T19:41:18.270Z,24.10
2023-02-22T19:43:46.411Z,23.55
2023-02-22T19:46:13.318Z,24.00
2023-02-22T19:48:41.278Z,23.10
2023-02-22T19:51:10.937Z,23.77
2023-02-22T19:53:41.917Z,24.73
2023-02-22T19:56:11.348Z,23.75
2023-02-22T19:58:39.770Z,23.15
2023-02-22T20:01:12.781Z,22.42
2023-02-22T20:03:39.829Z,22.57
2023-02-22T20:06:09.147Z,22.25
2023-02-22T20:08:37.638Z,23.88
2023-02-22T20:11:05.797Z,22.02
2023-02-22T20:13:33.526Z,21.17
2023-02-22T20:16:00.628Z,21.60
2023-02-22T20:18:27.083Z,21.30
2023-02-22T20:20:53.568Z,22.00
2023-02-22T20:23:20.079Z,21.73
2023-02-22T20:25:56.659Z,22.48
2023-02-22T20:28:24.372Z,21.63
2023-02-22T20:30:51.759Z,22.10
2023-02-22T20:33:19.237Z,21.70
2023-02-22T20:35:46.793Z,21.52
2023-02-22T20:38:14.528Z,20.63
2023-02-22T20:40:42.534Z,19.93
2023-02-22T20:43:09.758Z,20.95
2023-02-22T20:45:38.238Z,21.38
2023-02-22T20:48:05.737Z,20.33
2023-02-22T20:50:34.581Z,20.13
2023-02-22T20:53:01.023Z,22.27
2023-02-22T20:55:27.615Z,21.35
2023-02-22T20:57:54.175Z,20.40
2023-02-22T21:00:20.727Z,20.42
2023-02-22T21:02:47.291Z,20.92
2023-02-22T21:05:14.263Z,19.70
2023-02-22T21:07:40.754Z,20.25
2023-02-22T21:10:07.534Z,21.02
2023-02-22T21:12:34.864Z,20.30
2023-02-22T21:15:01.393Z,20.25
2023-02-22T21:17:30.974Z,20.13
2023-02-22T21:19:58.466Z,19.48
2023-02-22T21:22:25.280Z,21.20
2023-02-22T21:24:52.188Z,20.90
2023-02-22T21:27:19.153Z,19.38
2023-02-22T21:29:45.698Z,19.70
2023-02-22T21:32:13.853Z,19.67
2023-02-22T21:34:40.842Z,19.85
2023-02-22T21:37:08.495Z,19.70
2023-02-22T21:39:35.492Z,18.85
2023-02-22T21:42:02.509Z,18.80
2023-02-22T21:44:29.306Z,19.63
2023-02-22T21:46:55.947Z,18.92
2023-02-22T21:49:23.243Z,20.17
2023-02-22T21:51:51.704Z,19.00
2023-02-22T21:54:18.732Z,19.67
2023-02-22T21:56:45.687Z,19.95
2023-02-22T21:59:19.019Z,18.83
2023-02-22T22:01:51.833Z,18.70
2023-02-22T22:04:21.214Z,17.60
2023-02-22T22:06:50.989Z,18.40
2023-02-22T22:09:18.323Z,17.48
2023-02-22T22:11:53.624Z,18.20
2023-02-22T22:14:23.176Z,17.33
2023-02-22T22:16:53.860Z,17.20
2023-02-22T22:19:20.499Z,17.97
2023-02-22T22:21:48.795Z,17.70
2023-02-22T22:24:15.352Z,18.45
2023-02-22T22:26:43.982Z,17.60
2023-02-22T22:29:11.529Z,18.73
2023-02-22T22:31:38.595Z,17.93
2023-02-22T22:34:06.038Z,18.17
2023-02-22T22:36:34.490Z,18.88
2023-02-22T22:39:01.066Z,17.20
2023-02-22T22:41:30.708Z,18.08
2023-02-22T22:43:57.278Z,18.30
2023-02-22T22:46:23.840Z,17.80
2023-02-22T22:48:50.488Z,17.50
2023-02-22T22:51:20.828Z,17.75
2023-02-22T22:53:49.498Z,16.70
2023-02-22T22:56:26.037Z,17.90
2023-02-22T22:58:55.267Z,17.92
2023-02-22T23:01:27.942Z,17.33
2023-02-22T23:04:02.086Z,18.13
2023-02-22T23:06:32.770Z,17.08
2023-02-22T23:09:19.317Z,17.27
2023-02-22T23:11:53.281Z,16.67
2023-02-22T23:14:24.288Z,17.05
2023-02-22T23:16:56.398Z,18.25
2023-02-22T23:19:22.995Z,17.48
2023-02-22T23:21:50.254Z,17.83
2023-02-22T23:24:21.205Z,17.52
2023-02-22T23:26:51.087Z,17.35
2023-02-22T23:29:19.767Z,16.95
2023-02-22T23:31:48.682Z,17.33
2023-02-22T23:34:21.224Z,16.07
2023-02-22T23:36:48.514Z,16.50
2023-02-22T23:39:18.114Z,18.25
2023-02-22T23:41:44.639Z,17.02
2023-02-22T23:44:13.299Z,17.48
2023-02-22T23:46:41.230Z,16.20
2023-02-22T23:49:09.916Z,16.85
2023-02-22T23:51:44.457Z,17.17
2023-02-22T23:54:14.402Z,15.98
2023-02-22T23:56:47.325Z,16.35
2023-02-22T23:59:14.463Z,16.57
